sensor_id;sensor_type;location;lat;lon;timestamp;temperature;humidity
19037;DHT22;9651;49.138;8.900;2023-07-31T00:03:17;17.00;99.90
19037;DHT22;9651;49.138;8.900;2023-07-31T00:07:19;17.10;99.90
19037;DHT22;9651;49.138;8.900;2023-07-31T00:11:20;17.10;99.90
19037;DHT22;9651;49.138;8.900;2023-07-31T00:15:22;17.00;99.90
19037;DHT22;9651;49.138;8.900;2023-07-31T00:19:26;17.00;99.90
19037;DHT22;9651;49.138;8.900;2023-07-31T00:23:27;17.00;99.90
19037;DHT22;9651;49.138;8.900;2023-07-31T00:27:31;17.10;99.90
19037;DHT22;9651;49.138;8.900;2023-07-31T00:31:33;17.10;99.90
19037;DHT22;9651;49.138;8.900;2023-07-31T00:35:36;17.20;99.90
19037;DHT22;9651;49.138;8.900;2023-07-31T00:39:38;17.20;99.90
19037;DHT22;9651;49.138;8.900;2023-07-31T00:43:40;17.20;99.90
19037;DHT22;9651;49.138;8.900;2023-07-31T00:47:42;17.30;99.90
19037;DHT22;9651;49.138;8.900;2023-07-31T00:51:45;17.30;99.90
19037;DHT22;9651;49.138;8.900;2023-07-31T00:55:47;17.30;99.90
19037;DHT22;9651;49.138;8.900;2023-07-31T00:59:49;17.40;99.90
19037;DHT22;9651;49.138;8.900;2023-07-31T01:03:52;17.40;99.90
19037;DHT22;9651;49.138;8.900;2023-07-31T01:07:59;17.40;99.90
19037;DHT22;9651;49.138;8.900;2023-07-31T01:12:07;17.40;99.90
19037;DHT22;9651;49.138;8.900;2023-07-31T01:16:09;17.40;99.90
19037;DHT22;9651;49.138;8.900;2023-07-31T01:20:14;17.50;99.90
19037;DHT22;9651;49.138;8.900;2023-07-31T01:24:23;17.40;99.90
19037;DHT22;9651;49.138;8.900;2023-07-31T01:28:37;17.40;99.90
19037;DHT22;9651;49.138;8.900;2023-07-31T01:32:42;17.40;99.90
19037;DHT22;9651;49.138;8.900;2023-07-31T01:36:44;17.40;99.90
19037;DHT22;9651;49.138;8.900;2023-07-31T01:40:51;17.40;99.90
19037;DHT22;9651;49.138;8.900;2023-07-31T01:44:54;17.40;99.90
19037;DHT22;9651;49.138;8.900;2023-07-31T01:48:56;17.40;99.90
19037;DHT22;9651;49.138;8.900;2023-07-31T01:52:58;17.50;99.90
19037;DHT22;9651;49.138;8.900;2023-07-31T01:57:00;17.50;99.90
19037;DHT22;9651;49.138;8.900;2023-07-31T02:01:03;17.50;99.90
19037;DHT22;9651;49.138;8.900;2023-07-31T02:05:05;17.50;99.90
19037;DHT22;9651;49.138;8.900;2023-07-31T02:09:07;17.50;99.90
19037;DHT22;9651;49.138;8.900;2023-07-31T02:13:09;17.60;99.90
19037;DHT22;9651;49.138;8.900;2023-07-31T02:17:12;17.50;99.90
19037;DHT22;9651;49.138;8.900;2023-07-31T02:21:14;17.60;99.90
19037;DHT22;9651;49.138;8.900;2023-07-31T02:25:17;17.60;99.90
19037;DHT22;9651;49.138;8.900;2023-07-31T02:29:19;17.60;99.90
19037;DHT22;9651;49.138;8.900;2023-07-31T02:33:23;17.60;99.90
19037;DHT22;9651;49.138;8.900;2023-07-31T02:37:25;17.60;99.90
19037;DHT22;9651;49.138;8.900;2023-07-31T02:41:29;17.60;99.90
19037;DHT22;9651;49.138;8.900;2023-07-31T02:45:30;17.60;99.90
19037;DHT22;9651;49.138;8.900;2023-07-31T02:49:34;17.60;99.90
19037;DHT22;9651;49.138;8.900;2023-07-31T02:53:35;17.60;99.90
19037;DHT22;9651;49.138;8.900;2023-07-31T02:57:37;17.50;99.90
19037;DHT22;9651;49.138;8.900;2023-07-31T03:01:39;17.50;99.90
19037;DHT22;9651;49.138;8.900;2023-07-31T03:05:42;17.50;99.90
19037;DHT22;9651;49.138;8.900;2023-07-31T03:09:44;17.50;99.90
19037;DHT22;9651;49.138;8.900;2023-07-31T03:13:46;17.40;99.90
19037;DHT22;9651;49.138;8.900;2023-07-31T03:17:48;17.40;99.90
19037;DHT22;9651;49.138;8.900;2023-07-31T03:21:51;17.30;99.90
19037;DHT22;9651;49.138;8.900;2023-07-31T03:25:57;17.30;99.90
19037;DHT22;9651;49.138;8.900;2023-07-31T03:30:02;17.20;99.90
19037;DHT22;9651;49.138;8.900;2023-07-31T03:34:04;17.20;99.90
19037;DHT22;9651;49.138;8.900;2023-07-31T03:38:07;17.20;99.90
19037;DHT22;9651;49.138;8.900;2023-07-31T03:42:09;17.20;99.90
19037;DHT22;9651;49.138;8.900;2023-07-31T03:46:12;17.10;99.90
19037;DHT22;9651;49.138;8.900;2023-07-31T03:50:14;17.10;99.90
19037;DHT22;9651;49.138;8.900;2023-07-31T03:54:17;17.10;99.90
19037;DHT22;9651;49.138;8.900;2023-07-31T03:58:19;17.00;99.90
19037;DHT22;9651;49.138;8.900;2023-07-31T04:02:21;17.10;99.90
19037;DHT22;9651;49.138;8.900;2023-07-31T04:06:22;17.10;99.90
19037;DHT22;9651;49.138;8.900;2023-07-31T04:10:26;17.00;99.90
19037;DHT22;9651;49.138;8.900;2023-07-31T04:14:28;17.10;99.90
19037;DHT22;9651;49.138;8.900;2023-07-31T04:18:29;17.10;99.90
19037;DHT22;9651;49.138;8.900;2023-07-31T04:22:32;17.10;99.90
19037;DHT22;9651;49.138;8.900;2023-07-31T04:26:36;17.10;99.90
19037;DHT22;9651;49.138;8.900;2023-07-31T04:30:37;17.20;99.90
19037;DHT22;9651;49.138;8.900;2023-07-31T04:34:39;17.20;99.90
19037;DHT22;9651;49.138;8.900;2023-07-31T04:38:41;17.30;99.90
19037;DHT22;9651;49.138;8.900;2023-07-31T04:42:44;17.40;99.90
19037;DHT22;9651;49.138;8.900;2023-07-31T04:46:46;17.40;99.90
19037;DHT22;9651;49.138;8.900;2023-07-31T04:50:48;17.40;99.90
19037;DHT22;9651;49.138;8.900;2023-07-31T04:54:50;17.50;99.90
19037;DHT22;9651;49.138;8.900;2023-07-31T04:58:53;17.50;99.90
19037;DHT22;9651;49.138;8.900;2023-07-31T05:02:55;17.50;99.90
19037;DHT22;9651;49.138;8.900;2023-07-31T05:06:57;17.50;99.90
19037;DHT22;9651;49.138;8.900;2023-07-31T05:10:59;17.60;99.90
19037;DHT22;9651;49.138;8.900;2023-07-31T05:15:02;17.60;99.90
19037;DHT22;9651;49.138;8.900;2023-07-31T05:19:04;17.80;99.90
19037;DHT22;9651;49.138;8.900;2023-07-31T05:23:06;17.80;99.90
19037;DHT22;9651;49.138;8.900;2023-07-31T05:27:08;17.90;99.90
19037;DHT22;9651;49.138;8.900;2023-07-31T05:31:11;18.00;99.90
19037;DHT22;9651;49.138;8.900;2023-07-31T05:35:13;18.10;99.90
19037;DHT22;9651;49.138;8.900;2023-07-31T05:39:15;18.10;99.90
19037;DHT22;9651;49.138;8.900;2023-07-31T05:43:17;18.40;99.90
19037;DHT22;9651;49.138;8.900;2023-07-31T05:47:20;18.60;99.90
19037;DHT22;9651;49.138;8.900;2023-07-31T05:51:22;18.70;99.90
19037;DHT22;9651;49.138;8.900;2023-07-31T05:55:24;18.80;99.90
19037;DHT22;9651;49.138;8.900;2023-07-31T05:59:27;19.00;99.90
19037;DHT22;9651;49.138;8.900;2023-07-31T06:03:30;19.30;99.90
19037;DHT22;9651;49.138;8.900;2023-07-31T06:07:32;19.80;99.90
19037;DHT22;9651;49.138;8.900;2023-07-31T06:11:34;20.40;99.90
19037;DHT22;9651;49.138;8.900;2023-07-31T06:15:36;21.00;99.90
19037;DHT22;9651;49.138;8.900;2023-07-31T06:19:39;21.30;99.90
19037;DHT22;9651;49.138;8.900;2023-07-31T06:23:41;21.50;99.90
19037;DHT22;9651;49.138;8.900;2023-07-31T06:27:43;21.70;99.90
19037;DHT22;9651;49.138;8.900;2023-07-31T06:31:45;21.80;99.90
19037;DHT22;9651;49.138;8.900;2023-07-31T06:35:48;21.80;99.90
19037;DHT22;9651;49.138;8.900;2023-07-31T06:39:50;21.90;99.90
19037;DHT22;9651;49.138;8.900;2023-07-31T06:43:53;21.90;99.90
19037;DHT22;9651;49.138;8.900;2023-07-31T06:47:55;22.00;99.90
19037;DHT22;9651;49.138;8.900;2023-07-31T06:51:58;22.00;99.90
19037;DHT22;9651;49.138;8.900;2023-07-31T06:56:00;22.20;99.90
19037;DHT22;9651;49.138;8.900;2023-07-31T07:00:02;22.30;99.90
19037;DHT22;9651;49.138;8.900;2023-07-31T07:04:04;22.10;99.90
19037;DHT22;9651;49.138;8.900;2023-07-31T07:08:07;22.10;99.90
19037;DHT22;9651;49.138;8.900;2023-07-31T07:12:09;22.10;99.90
19037;DHT22;9651;49.138;8.900;2023-07-31T07:16:11;22.10;99.90
19037;DHT22;9651;49.138;8.900;2023-07-31T07:20:13;21.80;99.90
19037;DHT22;9651;49.138;8.900;2023-07-31T07:24:16;21.80;99.90
19037;DHT22;9651;49.138;8.900;2023-07-31T07:28:18;21.90;99.90
19037;DHT22;9651;49.138;8.900;2023-07-31T07:32:21;22.10;99.90
19037;DHT22;9651;49.138;8.900;2023-07-31T07:36:27;22.30;99.90
19037;DHT22;9651;49.138;8.900;2023-07-31T07:40:31;22.50;99.90
19037;DHT22;9651;49.138;8.900;2023-07-31T07:44:33;22.70;99.90
19037;DHT22;9651;49.138;8.900;2023-07-31T07:48:34;23.00;99.90
19037;DHT22;9651;49.138;8.900;2023-07-31T07:52:36;23.20;99.90
19037;DHT22;9651;49.138;8.900;2023-07-31T07:56:39;23.80;99.90
19037;DHT22;9651;49.138;8.900;2023-07-31T08:00:41;24.30;99.90
19037;DHT22;9651;49.138;8.900;2023-07-31T08:04:43;24.70;99.90
19037;DHT22;9651;49.138;8.900;2023-07-31T08:08:45;24.80;99.90
19037;DHT22;9651;49.138;8.900;2023-07-31T08:12:48;24.50;99.90
19037;DHT22;9651;49.138;8.900;2023-07-31T08:16:50;24.70;99.90
19037;DHT22;9651;49.138;8.900;2023-07-31T08:20:52;24.80;99.90
19037;DHT22;9651;49.138;8.900;2023-07-31T08:24:54;24.90;99.90
19037;DHT22;9651;49.138;8.900;2023-07-31T08:28:57;25.10;99.90
19037;DHT22;9651;49.138;8.900;2023-07-31T08:32:59;24.80;99.90
19037;DHT22;9651;49.138;8.900;2023-07-31T08:37:01;24.80;99.90
19037;DHT22;9651;49.138;8.900;2023-07-31T08:41:03;24.80;99.90
19037;DHT22;9651;49.138;8.900;2023-07-31T08:45:08;24.90;99.90
19037;DHT22;9651;49.138;8.900;2023-07-31T08:49:10;24.90;99.90
19037;DHT22;9651;49.138;8.900;2023-07-31T08:53:12;24.60;99.90
19037;DHT22;9651;49.138;8.900;2023-07-31T08:57:14;24.60;99.90
19037;DHT22;9651;49.138;8.900;2023-07-31T09:01:18;24.80;99.90
19037;DHT22;9651;49.138;8.900;2023-07-31T09:05:21;24.90;99.90
19037;DHT22;9651;49.138;8.900;2023-07-31T09:09:23;25.00;99.90
19037;DHT22;9651;49.138;8.900;2023-07-31T09:13:25;25.30;99.90
19037;DHT22;9651;49.138;8.900;2023-07-31T09:17:32;25.30;99.90
19037;DHT22;9651;49.138;8.900;2023-07-31T09:21:47;25.60;99.90
19037;DHT22;9651;49.138;8.900;2023-07-31T09:25:49;26.20;99.90
19037;DHT22;9651;49.138;8.900;2023-07-31T09:29:59;26.80;99.90
19037;DHT22;9651;49.138;8.900;2023-07-31T09:34:02;27.90;99.90
19037;DHT22;9651;49.138;8.900;2023-07-31T09:38:06;29.60;99.90
19037;DHT22;9651;49.138;8.900;2023-07-31T09:42:08;30.50;99.90
19037;DHT22;9651;49.138;8.900;2023-07-31T09:46:13;30.30;98.10
19037;DHT22;9651;49.138;8.900;2023-07-31T09:50:16;30.50;97.60
19037;DHT22;9651;49.138;8.900;2023-07-31T09:54:18;30.90;96.90
19037;DHT22;9651;49.138;8.900;2023-07-31T09:58:20;31.80;94.90
19037;DHT22;9651;49.138;8.900;2023-07-31T10:02:23;32.30;93.90
19037;DHT22;9651;49.138;8.900;2023-07-31T10:06:27;32.80;93.30
19037;DHT22;9651;49.138;8.900;2023-07-31T10:10:30;33.30;91.30
19037;DHT22;9651;49.138;8.900;2023-07-31T10:14:33;34.10;90.00
19037;DHT22;9651;49.138;8.900;2023-07-31T10:18:35;34.50;87.40
19037;DHT22;9651;49.138;8.900;2023-07-31T10:22:39;34.80;83.80
19037;DHT22;9651;49.138;8.900;2023-07-31T10:26:45;34.20;82.10
19037;DHT22;9651;49.138;8.900;2023-07-31T10:30:49;34.00;81.40
19037;DHT22;9651;49.138;8.900;2023-07-31T10:34:52;34.20;80.70
19037;DHT22;9651;49.138;8.900;2023-07-31T10:38:56;33.70;80.50
19037;DHT22;9651;49.138;8.900;2023-07-31T10:42:58;32.70;80.40
19037;DHT22;9651;49.138;8.900;2023-07-31T10:47:00;31.80;81.90
19037;DHT22;9651;49.138;8.900;2023-07-31T10:51:07;30.90;83.10
19037;DHT22;9651;49.138;8.900;2023-07-31T10:55:24;30.20;85.10
19037;DHT22;9651;49.138;8.900;2023-07-31T10:59:26;29.70;86.00
19037;DHT22;9651;49.138;8.900;2023-07-31T11:03:41;29.80;88.20
19037;DHT22;9651;49.138;8.900;2023-07-31T11:07:47;30.20;87.90
19037;DHT22;9651;49.138;8.900;2023-07-31T11:11:50;30.20;86.80
19037;DHT22;9651;49.138;8.900;2023-07-31T11:15:52;29.80;86.70
19037;DHT22;9651;49.138;8.900;2023-07-31T11:19:54;29.20;89.20
19037;DHT22;9651;49.138;8.900;2023-07-31T11:23:57;28.80;90.00
19037;DHT22;9651;49.138;8.900;2023-07-31T11:28:04;28.30;89.50
19037;DHT22;9651;49.138;8.900;2023-07-31T11:32:15;27.70;90.60
19037;DHT22;9651;49.138;8.900;2023-07-31T11:36:20;27.40;91.50
19037;DHT22;9651;49.138;8.900;2023-07-31T11:40:22;27.40;91.30
19037;DHT22;9651;49.138;8.900;2023-07-31T11:44:40;27.40;91.80
19037;DHT22;9651;49.138;8.900;2023-07-31T11:48:48;27.40;92.20
19037;DHT22;9651;49.138;8.900;2023-07-31T11:52:53;27.10;92.00
19037;DHT22;9651;49.138;8.900;2023-07-31T11:56:56;27.00;92.40
19037;DHT22;9651;49.138;8.900;2023-07-31T12:01:03;27.00;92.70
19037;DHT22;9651;49.138;8.900;2023-07-31T12:05:05;27.00;93.40
19037;DHT22;9651;49.138;8.900;2023-07-31T12:09:08;27.00;93.40
19037;DHT22;9651;49.138;8.900;2023-07-31T12:13:11;27.20;93.60
19037;DHT22;9651;49.138;8.900;2023-07-31T12:17:15;27.30;93.80
19037;DHT22;9651;49.138;8.900;2023-07-31T12:21:17;27.60;92.90
19037;DHT22;9651;49.138;8.900;2023-07-31T12:25:19;27.70;92.70
19037;DHT22;9651;49.138;8.900;2023-07-31T12:29:21;27.60;93.00
19037;DHT22;9651;49.138;8.900;2023-07-31T12:33:29;27.80;93.30
19037;DHT22;9651;49.138;8.900;2023-07-31T12:37:33;28.00;92.50
19037;DHT22;9651;49.138;8.900;2023-07-31T12:41:35;27.80;92.50
19037;DHT22;9651;49.138;8.900;2023-07-31T12:45:36;27.70;93.00
19037;DHT22;9651;49.138;8.900;2023-07-31T12:49:40;27.60;92.90
19037;DHT22;9651;49.138;8.900;2023-07-31T12:53:42;27.50;92.90
19037;DHT22;9651;49.138;8.900;2023-07-31T12:57:43;27.70;92.90
19037;DHT22;9651;49.138;8.900;2023-07-31T13:01:45;29.70;92.40
19037;DHT22;9651;49.138;8.900;2023-07-31T13:05:49;31.10;90.50
19037;DHT22;9651;49.138;8.900;2023-07-31T13:09:52;31.00;90.30
19037;DHT22;9651;49.138;8.900;2023-07-31T13:13:54;32.40;89.10
19037;DHT22;9651;49.138;8.900;2023-07-31T13:17:56;32.60;87.80
19037;DHT22;9651;49.138;8.900;2023-07-31T13:22:00;33.20;86.60
19037;DHT22;9651;49.138;8.900;2023-07-31T13:26:01;34.80;82.80
19037;DHT22;9651;49.138;8.900;2023-07-31T13:30:04;35.40;80.30
19037;DHT22;9651;49.138;8.900;2023-07-31T13:34:06;34.60;79.90
19037;DHT22;9651;49.138;8.900;2023-07-31T13:38:09;32.80;81.20
19037;DHT22;9651;49.138;8.900;2023-07-31T13:42:11;31.90;83.80
19037;DHT22;9651;49.138;8.900;2023-07-31T13:46:13;31.30;85.40
19037;DHT22;9651;49.138;8.900;2023-07-31T13:50:15;31.10;86.20
19037;DHT22;9651;49.138;8.900;2023-07-31T13:54:21;30.30;86.10
19037;DHT22;9651;49.138;8.900;2023-07-31T13:58:23;30.00;88.30
19037;DHT22;9651;49.138;8.900;2023-07-31T14:02:25;29.60;88.90
19037;DHT22;9651;49.138;8.900;2023-07-31T14:06:27;28.90;88.90
19037;DHT22;9651;49.138;8.900;2023-07-31T14:10:30;28.50;89.90
19037;DHT22;9651;49.138;8.900;2023-07-31T14:14:32;28.40;90.60
19037;DHT22;9651;49.138;8.900;2023-07-31T14:18:34;28.30;90.80
19037;DHT22;9651;49.138;8.900;2023-07-31T14:22:36;28.30;90.90
19037;DHT22;9651;49.138;8.900;2023-07-31T14:26:39;28.10;91.10
19037;DHT22;9651;49.138;8.900;2023-07-31T14:30:41;27.90;91.90
19037;DHT22;9651;49.138;8.900;2023-07-31T14:34:43;27.40;92.50
19037;DHT22;9651;49.138;8.900;2023-07-31T14:38:45;27.10;92.80
19037;DHT22;9651;49.138;8.900;2023-07-31T14:42:48;26.70;93.30
19037;DHT22;9651;49.138;8.900;2023-07-31T14:46:50;26.30;93.90
19037;DHT22;9651;49.138;8.900;2023-07-31T14:50:52;26.20;94.40
19037;DHT22;9651;49.138;8.900;2023-07-31T14:54:54;26.00;94.90
19037;DHT22;9651;49.138;8.900;2023-07-31T14:58:57;25.80;94.70
19037;DHT22;9651;49.138;8.900;2023-07-31T15:02:59;25.90;95.40
19037;DHT22;9651;49.138;8.900;2023-07-31T15:07:01;25.90;95.10
19037;DHT22;9651;49.138;8.900;2023-07-31T15:11:03;26.10;95.10
19037;DHT22;9651;49.138;8.900;2023-07-31T15:15:07;26.10;95.40
19037;DHT22;9651;49.138;8.900;2023-07-31T15:19:09;26.30;95.40
19037;DHT22;9651;49.138;8.900;2023-07-31T15:23:11;26.80;95.30
19037;DHT22;9651;49.138;8.900;2023-07-31T15:27:13;26.90;95.00
19037;DHT22;9651;49.138;8.900;2023-07-31T15:31:16;26.70;95.10
19037;DHT22;9651;49.138;8.900;2023-07-31T15:35:18;26.70;95.30
19037;DHT22;9651;49.138;8.900;2023-07-31T15:39:20;27.40;95.20
19037;DHT22;9651;49.138;8.900;2023-07-31T15:43:22;28.00;94.60
19037;DHT22;9651;49.138;8.900;2023-07-31T15:47:25;28.50;93.90
19037;DHT22;9651;49.138;8.900;2023-07-31T15:51:27;29.30;92.70
19037;DHT22;9651;49.138;8.900;2023-07-31T15:55:30;29.80;92.20
19037;DHT22;9651;49.138;8.900;2023-07-31T15:59:31;29.50;92.30
19037;DHT22;9651;49.138;8.900;2023-07-31T16:03:35;29.80;92.30
19037;DHT22;9651;49.138;8.900;2023-07-31T16:07:36;29.20;92.50
19037;DHT22;9651;49.138;8.900;2023-07-31T16:11:38;28.50;92.80
19037;DHT22;9651;49.138;8.900;2023-07-31T16:15:40;27.90;93.30
19037;DHT22;9651;49.138;8.900;2023-07-31T16:19:43;27.40;93.90
19037;DHT22;9651;49.138;8.900;2023-07-31T16:23:45;27.00;94.80
19037;DHT22;9651;49.138;8.900;2023-07-31T16:27:47;26.90;95.40
19037;DHT22;9651;49.138;8.900;2023-07-31T16:31:49;26.80;95.90
19037;DHT22;9651;49.138;8.900;2023-07-31T16:35:52;26.60;96.40
19037;DHT22;9651;49.138;8.900;2023-07-31T16:39:54;26.30;96.60
19037;DHT22;9651;49.138;8.900;2023-07-31T16:43:56;26.00;97.00
19037;DHT22;9651;49.138;8.900;2023-07-31T16:47:58;25.90;97.40
19037;DHT22;9651;49.138;8.900;2023-07-31T16:52:01;25.80;98.00
19037;DHT22;9651;49.138;8.900;2023-07-31T16:56:03;25.60;98.60
19037;DHT22;9651;49.138;8.900;2023-07-31T17:00:06;25.50;98.80
19037;DHT22;9651;49.138;8.900;2023-07-31T17:04:08;25.40;99.00
19037;DHT22;9651;49.138;8.900;2023-07-31T17:08:11;25.10;98.90
19037;DHT22;9651;49.138;8.900;2023-07-31T17:12:14;24.90;99.90
19037;DHT22;9651;49.138;8.900;2023-07-31T17:16:17;24.60;99.90
19037;DHT22;9651;49.138;8.900;2023-07-31T17:20:19;24.30;99.90
19037;DHT22;9651;49.138;8.900;2023-07-31T17:24:22;23.90;99.90
19037;DHT22;9651;49.138;8.900;2023-07-31T17:28:24;23.50;99.90
19037;DHT22;9651;49.138;8.900;2023-07-31T17:32:26;23.10;99.90
19037;DHT22;9651;49.138;8.900;2023-07-31T17:36:28;22.70;99.90
19037;DHT22;9651;49.138;8.900;2023-07-31T17:40:34;22.50;99.90
19037;DHT22;9651;49.138;8.900;2023-07-31T17:44:35;22.10;99.90
19037;DHT22;9651;49.138;8.900;2023-07-31T17:48:37;21.90;99.90
19037;DHT22;9651;49.138;8.900;2023-07-31T17:52:39;21.60;99.90
19037;DHT22;9651;49.138;8.900;2023-07-31T17:56:42;21.50;99.90
19037;DHT22;9651;49.138;8.900;2023-07-31T18:00:44;21.30;99.90
19037;DHT22;9651;49.138;8.900;2023-07-31T18:04:46;21.00;99.90
19037;DHT22;9651;49.138;8.900;2023-07-31T18:08:48;21.00;99.90
19037;DHT22;9651;49.138;8.900;2023-07-31T18:12:52;20.70;99.90
19037;DHT22;9651;49.138;8.900;2023-07-31T18:16:54;20.40;99.90
19037;DHT22;9651;49.138;8.900;2023-07-31T18:20:56;20.20;99.90
19037;DHT22;9651;49.138;8.900;2023-07-31T18:24:59;20.20;99.90
19037;DHT22;9651;49.138;8.900;2023-07-31T18:29:02;20.20;99.90
19037;DHT22;9651;49.138;8.900;2023-07-31T18:33:04;20.20;99.90
19037;DHT22;9651;49.138;8.900;2023-07-31T18:37:06;20.20;99.90
19037;DHT22;9651;49.138;8.900;2023-07-31T18:41:08;20.10;99.90
19037;DHT22;9651;49.138;8.900;2023-07-31T18:45:11;20.00;99.90
19037;DHT22;9651;49.138;8.900;2023-07-31T18:49:13;19.80;99.90
19037;DHT22;9651;49.138;8.900;2023-07-31T18:53:15;19.80;99.90
19037;DHT22;9651;49.138;8.900;2023-07-31T18:57:18;19.70;99.90
19037;DHT22;9651;49.138;8.900;2023-07-31T19:01:22;19.60;99.90
19037;DHT22;9651;49.138;8.900;2023-07-31T19:05:24;19.50;99.90
19037;DHT22;9651;49.138;8.900;2023-07-31T19:09:30;19.50;99.90
19037;DHT22;9651;49.138;8.900;2023-07-31T19:13:33;19.50;99.90
19037;DHT22;9651;49.138;8.900;2023-07-31T19:17:36;19.50;99.90
19037;DHT22;9651;49.138;8.900;2023-07-31T19:21:38;19.50;99.90
19037;DHT22;9651;49.138;8.900;2023-07-31T19:25:40;19.50;99.90
19037;DHT22;9651;49.138;8.900;2023-07-31T19:29:42;19.50;99.90
19037;DHT22;9651;49.138;8.900;2023-07-31T19:33:45;19.50;99.90
19037;DHT22;9651;49.138;8.900;2023-07-31T19:37:47;19.50;99.90
19037;DHT22;9651;49.138;8.900;2023-07-31T19:41:49;19.40;99.90
19037;DHT22;9651;49.138;8.900;2023-07-31T19:45:52;19.30;99.90
19037;DHT22;9651;49.138;8.900;2023-07-31T19:49:55;19.30;99.90
19037;DHT22;9651;49.138;8.900;2023-07-31T19:53:57;19.30;99.90
19037;DHT22;9651;49.138;8.900;2023-07-31T19:57:59;19.30;99.90
19037;DHT22;9651;49.138;8.900;2023-07-31T20:02:01;19.30;99.90
19037;DHT22;9651;49.138;8.900;2023-07-31T20:06:04;19.30;99.90
19037;DHT22;9651;49.138;8.900;2023-07-31T20:10:06;19.30;99.90
19037;DHT22;9651;49.138;8.900;2023-07-31T20:14:09;19.20;99.90
19037;DHT22;9651;49.138;8.900;2023-07-31T20:18:11;19.20;99.90
19037;DHT22;9651;49.138;8.900;2023-07-31T20:22:14;19.20;99.90
19037;DHT22;9651;49.138;8.900;2023-07-31T20:26:16;19.10;99.90
19037;DHT22;9651;49.138;8.900;2023-07-31T20:30:18;19.10;99.90
19037;DHT22;9651;49.138;8.900;2023-07-31T20:34:20;19.20;99.90
19037;DHT22;9651;49.138;8.900;2023-07-31T20:38:23;19.10;99.90
19037;DHT22;9651;49.138;8.900;2023-07-31T20:42:26;19.10;99.90
19037;DHT22;9651;49.138;8.900;2023-07-31T20:46:28;19.10;99.90
19037;DHT22;9651;49.138;8.900;2023-07-31T20:50:30;19.00;99.90
19037;DHT22;9651;49.138;8.900;2023-07-31T20:54:34;18.90;99.90
19037;DHT22;9651;49.138;8.900;2023-07-31T20:58:36;18.80;99.90
19037;DHT22;9651;49.138;8.900;2023-07-31T21:02:38;18.70;99.90
19037;DHT22;9651;49.138;8.900;2023-07-31T21:06:40;18.70;99.90
19037;DHT22;9651;49.138;8.900;2023-07-31T21:10:43;18.60;99.90
19037;DHT22;9651;49.138;8.900;2023-07-31T21:14:45;18.60;99.90
19037;DHT22;9651;49.138;8.900;2023-07-31T21:18:47;18.60;99.90
19037;DHT22;9651;49.138;8.900;2023-07-31T21:22:48;18.60;99.90
19037;DHT22;9651;49.138;8.900;2023-07-31T21:26:52;18.60;99.90
19037;DHT22;9651;49.138;8.900;2023-07-31T21:30:53;18.50;99.90
19037;DHT22;9651;49.138;8.900;2023-07-31T21:34:55;18.50;99.90
19037;DHT22;9651;49.138;8.900;2023-07-31T21:38:57;18.50;99.90
19037;DHT22;9651;49.138;8.900;2023-07-31T21:43:00;18.60;99.90
19037;DHT22;9651;49.138;8.900;2023-07-31T21:47:03;18.70;99.90
19037;DHT22;9651;49.138;8.900;2023-07-31T21:51:05;18.80;99.90
19037;DHT22;9651;49.138;8.900;2023-07-31T21:55:08;18.80;99.90
19037;DHT22;9651;49.138;8.900;2023-07-31T21:59:11;18.80;99.90
19037;DHT22;9651;49.138;8.900;2023-07-31T22:03:13;18.90;99.90
19037;DHT22;9651;49.138;8.900;2023-07-31T22:07:14;18.80;99.90
19037;DHT22;9651;49.138;8.900;2023-07-31T22:11:16;18.80;99.90
19037;DHT22;9651;49.138;8.900;2023-07-31T22:15:21;18.80;99.90
19037;DHT22;9651;49.138;8.900;2023-07-31T22:19:23;18.80;99.90
19037;DHT22;9651;49.138;8.900;2023-07-31T22:23:25;18.80;99.90
19037;DHT22;9651;49.138;8.900;2023-07-31T22:27:27;18.80;99.90
19037;DHT22;9651;49.138;8.900;2023-07-31T22:31:30;18.80;99.90
19037;DHT22;9651;49.138;8.900;2023-07-31T22:35:32;18.80;99.90
19037;DHT22;9651;49.138;8.900;2023-07-31T22:39:34;18.70;99.90
19037;DHT22;9651;49.138;8.900;2023-07-31T22:43:36;18.70;99.90
19037;DHT22;9651;49.138;8.900;2023-07-31T22:47:39;18.70;99.90
19037;DHT22;9651;49.138;8.900;2023-07-31T22:51:41;18.70;99.90
19037;DHT22;9651;49.138;8.900;2023-07-31T22:55:43;18.70;99.90
19037;DHT22;9651;49.138;8.900;2023-07-31T22:59:44;18.70;99.90
19037;DHT22;9651;49.138;8.900;2023-07-31T23:03:47;18.70;99.90
19037;DHT22;9651;49.138;8.900;2023-07-31T23:07:49;18.60;99.90
19037;DHT22;9651;49.138;8.900;2023-07-31T23:11:51;18.60;99.90
19037;DHT22;9651;49.138;8.900;2023-07-31T23:15:53;18.50;99.90
19037;DHT22;9651;49.138;8.900;2023-07-31T23:19:56;18.50;99.90
19037;DHT22;9651;49.138;8.900;2023-07-31T23:23:58;18.50;99.90
19037;DHT22;9651;49.138;8.900;2023-07-31T23:28:00;18.50;99.90
19037;DHT22;9651;49.138;8.900;2023-07-31T23:32:02;18.40;99.90
19037;DHT22;9651;49.138;8.900;2023-07-31T23:36:09;18.40;99.90
19037;DHT22;9651;49.138;8.900;2023-07-31T23:40:12;18.30;99.90
19037;DHT22;9651;49.138;8.900;2023-07-31T23:44:14;18.40;99.90
19037;DHT22;9651;49.138;8.900;2023-07-31T23:48:16;18.30;99.90
19037;DHT22;9651;49.138;8.900;2023-07-31T23:52:19;18.30;99.90
19037;DHT22;9651;49.138;8.900;2023-07-31T23:56:21;18.30;99.90
